AYNZ/LAE METAR and TAF weather

Enter ICAO airport designator
Station Type Date Time Source
AYNZ METAR 2022/01/26 07:00 UTC NOAA

AYNZ 260700Z 05015G20KT 9999 SCT035 SCT050 32/23 Q1005=


Station Type Date Time Source
AYNZ Decoded METAR 2022/01/26 07:00 UTC NOAA

Station name not available
Jan 26, 2022 - 02:00 AM EST / 2022.01.26 0700 UTC
Wind: from the NE (050 degrees) at 17 MPH (15 KT) gusting to 23 MPH (20 KT):0
Visibility: greater than 7 mile(s):0
Sky conditions: partly cloudy
Temperature: 89 F (32 C)
Heat index: 96.8 F (36.0 C):1
Dew Point: 73 F (23 C)
Relative Humidity: 59%
Pressure (altimeter): 29.68 in. Hg (1005 hPa)
ob: AYNZ 260700Z 05015G20KT 9999 SCT035 SCT050 32/23 Q1005=
cycle: 7

Station Type Date Time Source
AYNZ TAF 2015/08/19 08:15 UTC NOAA

TAF AYNZ 190550Z 1908/1920 09015KT 9999 SCT020 SCT120
FM191400 VRB03KT 9999 BKN040 Q 1011 1014 1013 1010

Example: see airport list